»·PEaware :: N56445 KBLI-KPAE

N56445 :: KBLI-KPAE

FLIGHT INFORMATION

Flight Status: Arrived
Operator: Privately registered:
United States
More flights under this callsign
Pilot: Gary S. (41745)
Aircraft: MAULE M-6 SUPER ROCKET
(M6)
More flights by this aircraft type
Origin: KBLI Bellingham Intl
United States
Destination: KPAE Paine Field/Snohomish Co.
United States
More flights between these airports :: More routes between these airports
Route: KIENO6 CVV CVV
File this flight plan on PilotEdge
Remarks:
Altitude:
(Current/Filed)
4,000ft
Speed:
(Current/Filed)
110kts
Departed: 06-Oct-22 05:59 PM
Arrived: 06-Oct-22 06:50 PM
Distance/Time
Traveled:
54nm/0:51
Distance/Time
To Go:
Arrived

Flight Plot

Page will automatically refresh every two minutes.

Flight plan parsing failed; only flown route is shown


Map Options




Map Legend


Flown Route
Filed Route
Departure Airport
Arrival Airport
Navaid (VOR, NDB)
Fix

Horizontal Profiles

Position Reports

Time Latitude Longitude Heading Altitude Ground
Speed
06-Oct-22 17:41 48.790959 -122.535033 270 161ft 0kts
06-Oct-22 17:42 48.790959 -122.535033 270 161ft 0kts
06-Oct-22 17:43 48.790959 -122.535033 270 161ft 0kts
06-Oct-22 17:44 48.790959 -122.535033 270 161ft 0kts
06-Oct-22 17:45 48.790959 -122.535033 270 161ft 0kts
06-Oct-22 17:46 48.790959 -122.535033 270 161ft 0kts
06-Oct-22 17:47 48.790959 -122.535033 270 161ft 0kts
06-Oct-22 17:48 48.790959 -122.535033 270 161ft 0kts
06-Oct-22 17:49 48.790961 -122.535092 279 161ft 0kts
06-Oct-22 17:50 48.790966 -122.535103 308 161ft 0kts
06-Oct-22 17:51 48.791018 -122.535211 303 161ft 0kts
06-Oct-22 17:52 48.791064 -122.535332 293 161ft 0kts
06-Oct-22 17:53 48.792479 -122.535837 353 160ft 28kts
06-Oct-22 17:54 48.801376 -122.536108 336 149ft 6kts
06-Oct-22 17:55 48.801634 -122.536418 310 148ft 0kts
06-Oct-22 17:56 48.801638 -122.536424 314 148ft 0kts
06-Oct-22 17:57 48.801733 -122.536916 272 149ft 12kts
06-Oct-22 17:58 48.789904 -122.538966 185 592ft 72kts
06-Oct-22 17:59 48.773223 -122.555553 228 1652ft 80kts
06-Oct-22 18:00 48.757833 -122.578494 214 2655ft 80kts
06-Oct-22 18:01 48.739904 -122.596679 175 3569ft 80kts
06-Oct-22 18:02 48.718919 -122.590363 169 4107ft 80kts
06-Oct-22 18:03 48.697175 -122.584919 167 4206ft 89kts
06-Oct-22 18:04 48.669823 -122.584842 179 3925ft 89kts
06-Oct-22 18:05 48.646609 -122.587969 188 3905ft 73kts
06-Oct-22 18:06 48.626113 -122.593129 187 3997ft 66kts
06-Oct-22 18:07 48.604781 -122.600428 185 4002ft 79kts
06-Oct-22 18:08 48.582803 -122.605874 184 4061ft 83kts
06-Oct-22 18:09 48.560084 -122.613406 187 4113ft 84kts
06-Oct-22 18:10 48.536294 -122.619105 187 4031ft 85kts
06-Oct-22 18:11 48.513160 -122.627181 192 3907ft 85kts
06-Oct-22 18:12 48.490121 -122.634975 189 3835ft 85kts
06-Oct-22 18:13 48.468323 -122.648995 196 3795ft 85kts
06-Oct-22 18:14 48.447017 -122.663767 195 3726ft 89kts
06-Oct-22 18:15 48.424858 -122.670195 176 3770ft 82kts
06-Oct-22 18:16 48.403566 -122.673400 181 3859ft 72kts
06-Oct-22 18:17 48.382531 -122.668712 197 3776ft 84kts
06-Oct-22 18:18 48.360206 -122.679964 189 3734ft 79kts
06-Oct-22 18:19 48.338981 -122.686378 187 3738ft 75kts
06-Oct-22 18:20 48.319611 -122.693630 188 3786ft 68kts
06-Oct-22 18:21 48.299408 -122.698857 185 3888ft 75kts
06-Oct-22 18:22 48.278746 -122.706504 194 3926ft 76kts
06-Oct-22 18:23 48.258669 -122.717647 195 3912ft 77kts
06-Oct-22 18:24 48.239632 -122.715918 163 3856ft 76kts
06-Oct-22 18:26 48.232917 -122.685973 114 3757ft 82kts
06-Oct-22 18:27 48.223651 -122.656579 117 3754ft 76kts
06-Oct-22 18:28 48.215249 -122.627393 117 3742ft 74kts
06-Oct-22 18:29 48.205767 -122.599460 117 3706ft 76kts
06-Oct-22 18:30 48.194974 -122.573651 130 3757ft 77kts
06-Oct-22 18:31 48.189667 -122.541967 99 3924ft 81kts
06-Oct-22 18:32 48.187365 -122.508512 108 3798ft 79kts
06-Oct-22 18:33 48.175958 -122.481566 123 3297ft 74kts
06-Oct-22 18:34 48.167933 -122.453116 122 2872ft 72kts
06-Oct-22 18:35 48.157464 -122.427562 115 2925ft 74kts
06-Oct-22 18:36 48.149378 -122.399584 121 3068ft 71kts
06-Oct-22 18:37 48.136744 -122.373366 119 2978ft 86kts
06-Oct-22 18:38 48.126803 -122.343104 123 2807ft 72kts
06-Oct-22 18:39 48.115367 -122.317139 130 2844ft 77kts
06-Oct-22 18:40 48.102252 -122.293708 185 2743ft 90kts
06-Oct-22 18:41 48.079712 -122.288219 186 2177ft 87kts
06-Oct-22 18:42 48.058695 -122.295004 192 1733ft 71kts
06-Oct-22 18:43 48.038789 -122.291254 163 1632ft 69kts
06-Oct-22 18:44 48.021145 -122.288416 177 1826ft 68kts
06-Oct-22 18:45 48.001131 -122.288986 171 1970ft 72kts
06-Oct-22 18:46 47.980762 -122.288323 174 1769ft 72kts
06-Oct-22 18:47 47.960511 -122.288440 177 1453ft 72kts
06-Oct-22 18:48 47.940677 -122.283787 184 1019ft 74kts
06-Oct-22 18:48 47.923765 -122.285899 178 657ft 72kts
06-Oct-22 18:50 47.912919 -122.284387 87 563ft 0kts
06-Oct-22 18:51 47.912920 -122.284351 88 563ft 1kts
06-Oct-22 18:52 47.911910 -122.283323 180 567ft 6kts
06-Oct-22 18:53 47.908832 -122.282766 138 580ft 14kts
06-Oct-22 18:53 47.906262 -122.278804 133 594ft 17kts
06-Oct-22 18:54 47.904483 -122.275558 355 596ft 2kts
06-Oct-22 18:55 47.904461 -122.275700 219 597ft 0kts

Navigation Log

Ident Type
Flight plan parsing failed, navigation log unavailable